Time;durP1;ratioP1;P1;durP2;ratioP2;P2;SDS_P1;SDS_P2;PMS_P1;PMS_P2;Temp;Humidity;BMP_temperature;BMP_pressure;BME280_temperature;BME280_humidity;BME280_pressure;Samples;Min_cycle;Max_cycle;Signal;HPM_P1;HPM_P2
2023/01/25 00:01:33;;;;;;;25.02;18.45;;;;;;;;;;5134005;28;20220;-66
2023/01/25 00:04:00;;;;;;;28.35;20.33;;;;;;;;;;5135296;27;20248;-66
2023/01/25 00:06:29;;;;;;;27.85;19.20;;;;;;;;;;5138316;27;20298;-66
2023/01/25 00:08:56;;;;;;;28.77;20.08;;;;;;;;;;5138683;27;20193;-66
2023/01/25 00:11:23;;;;;;;26.08;18.83;;;;;;;;;;5138044;27;20192;-66
2023/01/25 00:13:50;;;;;;;27.45;18.50;;;;;;;;;;5137771;27;20197;-66
2023/01/25 00:16:17;;;;;;;26.42;18.77;;;;;;;;;;5138022;27;20232;-67
2023/01/25 00:18:44;;;;;;;25.92;17.88;;;;;;;;;;5138232;27;20280;-66
2023/01/25 00:21:12;;;;;;;25.10;18.05;;;;;;;;;;5138032;27;20192;-66
2023/01/25 00:23:41;;;;;;;26.63;18.85;;;;;;;;;;5138038;27;20227;-66
2023/01/25 00:26:08;;;;;;;23.70;16.27;;;;;;;;;;5137851;27;20285;-66
2023/01/25 00:28:36;;;;;;;27.33;18.45;;;;;;;;;;5137995;27;20230;-66
2023/01/25 00:31:03;;;;;;;26.25;20.23;;;;;;;;;;5137565;27;20204;-66
2023/01/25 00:33:39;;;;;;;25.45;17.98;;;;;;;;;;5137646;27;20244;-66
2023/01/25 00:36:28;;;;;;;21.70;16.50;;;;;;;;;;5137578;27;20204;-66
2023/01/25 00:38:58;;;;;;;25.02;17.40;;;;;;;;;;5138106;27;20221;-66
2023/01/25 00:41:25;;;;;;;29.05;18.33;;;;;;;;;;5137234;27;20200;-66
2023/01/25 00:43:52;;;;;;;26.63;18.48;;;;;;;;;;5137367;27;20214;-66
2023/01/25 00:46:19;;;;;;;24.05;16.88;;;;;;;;;;5137479;27;20190;-66
2023/01/25 00:48:47;;;;;;;30.90;20.02;;;;;;;;;;5137023;27;20284;-66
2023/01/25 00:51:14;;;;;;;28.23;19.30;;;;;;;;;;5137433;27;20554;-66
2023/01/25 00:53:41;;;;;;;25.17;17.52;;;;;;;;;;5137269;27;20196;-66
2023/01/25 00:56:10;;;;;;;27.73;18.55;;;;;;;;;;5136845;27;20226;-66
2023/01/25 00:58:37;;;;;;;27.38;19.45;;;;;;;;;;5137533;27;20280;-66
2023/01/25 01:01:04;;;;;;;30.60;19.98;;;;;;;;;;5137182;27;20288;-66
2023/01/25 01:03:32;;;;;;;27.30;19.77;;;;;;;;;;5136635;27;20686;-66
2023/01/25 01:06:00;;;;;;;28.45;20.58;;;;;;;;;;5137259;27;20189;-66
2023/01/25 01:08:27;;;;;;;26.95;18.50;;;;;;;;;;5136669;27;20206;-66
2023/01/25 01:10:59;;;;;;;26.10;19.40;;;;;;;;;;5137039;27;20226;-66
2023/01/25 01:13:28;;;;;;;28.77;18.48;;;;;;;;;;5136863;27;20193;-66
2023/01/25 01:15:56;;;;;;;25.40;19.70;;;;;;;;;;5135496;27;20233;-66
2023/01/25 01:18:23;;;;;;;30.40;20.55;;;;;;;;;;5136707;27;20189;-66
2023/01/25 01:20:51;;;;;;;29.42;20.35;;;;;;;;;;5136789;27;20195;-66
2023/01/25 01:23:18;;;;;;;26.73;21.10;;;;;;;;;;5136874;27;20224;-66
2023/01/25 01:25:45;;;;;;;27.55;20.38;;;;;;;;;;5136897;27;20220;-66
2023/01/25 01:28:13;;;;;;;28.90;18.48;;;;;;;;;;5136448;27;20253;-66
2023/01/25 01:30:42;;;;;;;28.08;19.48;;;;;;;;;;5135979;27;20200;-66
2023/01/25 01:33:09;;;;;;;31.08;20.75;;;;;;;;;;5136703;27;20197;-66
2023/01/25 01:35:36;;;;;;;26.20;19.38;;;;;;;;;;5136578;27;20197;-66
2023/01/25 01:38:03;;;;;;;27.58;19.38;;;;;;;;;;5136722;27;20193;-66
2023/01/25 01:40:30;;;;;;;30.58;20.05;;;;;;;;;;5136370;27;20188;-67
2023/01/25 01:42:58;;;;;;;32.88;22.10;;;;;;;;;;5135875;27;20220;-66
2023/01/25 01:45:44;;;;;;;29.42;21.23;;;;;;;;;;5136293;27;20188;-66
2023/01/25 01:48:16;;;;;;;29.08;19.17;;;;;;;;;;5136304;27;20196;-66
2023/01/25 01:50:43;;;;;;;30.05;19.55;;;;;;;;;;5137158;27;20193;-67
2023/01/25 01:53:11;;;;;;;31.67;20.23;;;;;;;;;;5136041;27;20197;-66
2023/01/25 01:55:38;;;;;;;29.90;20.23;;;;;;;;;;5136167;27;20192;-66
2023/01/25 01:58:07;;;;;;;32.65;21.45;;;;;;;;;;5135904;27;20246;-66
2023/01/25 02:00:36;;;;;;;28.92;18.65;;;;;;;;;;5135999;27;20193;-66
2023/01/25 02:03:03;;;;;;;29.90;20.95;;;;;;;;;;5135785;27;20254;-66
2023/01/25 02:05:34;;;;;;;30.08;20.48;;;;;;;;;;5136174;27;20195;-66
2023/01/25 02:08:02;;;;;;;29.10;20.70;;;;;;;;;;5136308;27;20182;-66
2023/01/25 02:10:30;;;;;;;33.03;21.77;;;;;;;;;;5135970;27;20284;-66
2023/01/25 02:12:59;;;;;;;32.10;21.30;;;;;;;;;;5135287;27;20198;-66
2023/01/25 02:15:28;;;;;;;34.03;23.42;;;;;;;;;;5135813;27;20189;-66
2023/01/25 02:17:55;;;;;;;32.70;23.55;;;;;;;;;;5135670;27;20195;-66
2023/01/25 02:20:27;;;;;;;37.47;24.42;;;;;;;;;;5135994;27;20212;-66
2023/01/25 02:22:57;;;;;;;30.45;23.25;;;;;;;;;;5135661;27;20213;-66
2023/01/25 02:25:26;;;;;;;30.92;22.10;;;;;;;;;;5135622;27;20192;-66
2023/01/25 02:27:55;;;;;;;33.90;23.58;;;;;;;;;;5135411;27;20196;-66
2023/01/25 02:30:23;;;;;;;31.77;23.90;;;;;;;;;;5135419;27;20197;-66
2023/01/25 02:32:50;;;;;;;30.90;21.55;;;;;;;;;;5135093;27;20193;-66
2023/01/25 02:35:21;;;;;;;33.03;23.10;;;;;;;;;;5134965;27;20205;-66
2023/01/25 02:37:48;;;;;;;32.17;22.00;;;;;;;;;;5135302;27;20583;-66
2023/01/25 02:40:15;;;;;;;31.55;20.90;;;;;;;;;;5135199;27;20189;-66
2023/01/25 02:42:44;;;;;;;31.38;21.40;;;;;;;;;;5134790;27;20678;-66
2023/01/25 02:45:14;;;;;;;31.05;22.50;;;;;;;;;;5134760;27;20754;-66
2023/01/25 02:47:41;;;;;;;34.28;23.15;;;;;;;;;;5135565;27;20192;-66
2023/01/25 02:50:09;;;;;;;33.58;23.40;;;;;;;;;;5135078;27;20199;-66
2023/01/25 02:52:36;;;;;;;35.38;21.83;;;;;;;;;;5135318;27;20207;-66
2023/01/25 02:55:03;;;;;;;35.97;23.90;;;;;;;;;;5135057;27;20190;-66
2023/01/25 02:57:30;;;;;;;30.80;21.33;;;;;;;;;;5135349;27;20315;-66
2023/01/25 02:59:59;;;;;;;30.98;22.30;;;;;;;;;;5134474;27;20250;-66
2023/01/25 03:02:26;;;;;;;37.28;23.25;;;;;;;;;;5134557;27;20592;-66
2023/01/25 03:04:53;;;;;;;34.33;22.20;;;;;;;;;;5134836;27;20244;-66
2023/01/25 03:07:20;;;;;;;36.65;21.13;;;;;;;;;;5134974;27;20551;-66
2023/01/25 03:09:47;;;;;;;30.40;23.17;;;;;;;;;;5134918;27;20196;-66
2023/01/25 03:12:15;;;;;;;31.67;21.00;;;;;;;;;;5134738;27;20188;-66
2023/01/25 03:14:43;;;;;;;32.90;22.13;;;;;;;;;;5134630;27;20198;-66
2023/01/25 03:17:12;;;;;;;33.00;21.80;;;;;;;;;;5134651;27;20230;-66
2023/01/25 03:19:39;;;;;;;38.90;24.50;;;;;;;;;;5134222;27;20200;-66
2023/01/25 03:22:08;;;;;;;29.30;21.80;;;;;;;;;;5134305;27;20196;-66
2023/01/25 03:24:35;;;;;;;30.60;21.10;;;;;;;;;;5134393;27;20212;-66
2023/01/25 03:27:13;;;;;;;32.28;21.50;;;;;;;;;;5134635;27;20536;-67
2023/01/25 03:29:40;;;;;;;37.50;22.95;;;;;;;;;;5134152;27;20180;-66
2023/01/25 03:32:07;;;;;;;35.03;21.92;;;;;;;;;;5135069;28;20220;-66
2023/01/25 03:34:36;;;;;;;32.20;21.58;;;;;;;;;;5134718;28;20198;-66
2023/01/25 03:37:03;;;;;;;30.25;20.70;;;;;;;;;;5134453;28;20201;-66
2023/01/25 03:39:30;;;;;;;25.73;18.80;;;;;;;;;;5136392;27;20680;-67
2023/01/25 03:41:58;;;;;;;33.47;22.42;;;;;;;;;;5138990;27;20591;-66
2023/01/25 03:44:25;;;;;;;33.38;22.98;;;;;;;;;;5138434;27;20222;-67
2023/01/25 03:46:52;;;;;;;31.33;20.85;;;;;;;;;;5138300;27;20667;-66
2023/01/25 03:49:19;;;;;;;33.80;21.20;;;;;;;;;;5138481;27;20284;-67
2023/01/25 03:51:48;;;;;;;32.05;20.58;;;;;;;;;;5138897;27;20584;-67
2023/01/25 03:54:15;;;;;;;31.65;21.17;;;;;;;;;;5138430;27;20198;-67
2023/01/25 03:56:42;;;;;;;34.85;21.42;;;;;;;;;;5129939;27;20222;-66
2023/01/25 03:59:09;;;;;;;30.92;20.20;;;;;;;;;;5118484;28;20201;-68
2023/01/25 04:01:36;;;;;;;34.33;19.73;;;;;;;;;;5117813;28;20289;-66
2023/01/25 04:04:03;;;;;;;29.73;20.30;;;;;;;;;;5118038;28;20222;-67
2023/01/25 04:06:31;;;;;;;29.23;21.60;;;;;;;;;;5117572;28;20203;-66
2023/01/25 04:08:59;;;;;;;30.45;20.98;;;;;;;;;;5117396;28;20659;-67
2023/01/25 04:11:26;;;;;;;29.80;20.67;;;;;;;;;;5117559;28;20191;-67
2023/01/25 04:13:53;;;;;;;30.70;20.33;;;;;;;;;;5118023;28;20202;-67
2023/01/25 04:16:21;;;;;;;31.20;19.63;;;;;;;;;;5117759;28;20190;-67
2023/01/25 04:18:48;;;;;;;28.67;19.02;;;;;;;;;;5117430;28;20194;-67
2023/01/25 04:21:15;;;;;;;31.20;19.17;;;;;;;;;;5117440;28;20197;-66
2023/01/25 04:23:42;;;;;;;27.55;19.95;;;;;;;;;;5117254;28;20211;-66
2023/01/25 04:26:13;;;;;;;28.83;19.50;;;;;;;;;;5117292;28;20190;-66
2023/01/25 04:28:40;;;;;;;33.17;20.52;;;;;;;;;;5116879;28;20200;-66
2023/01/25 04:31:08;;;;;;;26.58;19.52;;;;;;;;;;5116838;28;20293;-66
2023/01/25 04:33:35;;;;;;;27.88;18.80;;;;;;;;;;5116817;28;20651;-67
2023/01/25 04:36:02;;;;;;;25.58;18.95;;;;;;;;;;5117093;28;20280;-66
2023/01/25 04:38:29;;;;;;;28.65;19.60;;;;;;;;;;5117914;28;20193;-66
2023/01/25 04:40:57;;;;;;;28.00;18.25;;;;;;;;;;5117206;28;20204;-66
2023/01/25 04:43:26;;;;;;;23.02;17.70;;;;;;;;;;5116894;28;20297;-66
2023/01/25 04:45:53;;;;;;;30.42;19.63;;;;;;;;;;5116714;28;20209;-67
2023/01/25 04:48:20;;;;;;;30.13;20.20;;;;;;;;;;5116876;28;20199;-66
2023/01/25 04:50:47;;;;;;;28.10;19.73;;;;;;;;;;5116405;28;20197;-67
2023/01/25 04:53:14;;;;;;;27.85;18.80;;;;;;;;;;5116796;28;20190;-67
2023/01/25 04:55:44;;;;;;;29.00;20.10;;;;;;;;;;5116664;28;20284;-66
2023/01/25 04:58:11;;;;;;;26.25;18.85;;;;;;;;;;5116870;28;20196;-67
2023/01/25 05:00:40;;;;;;;28.30;19.15;;;;;;;;;;5114816;28;20198;-67
2023/01/25 05:03:07;;;;;;;30.92;19.85;;;;;;;;;;5116502;28;20195;-67
2023/01/25 05:05:34;;;;;;;28.98;17.80;;;;;;;;;;5116204;28;20225;-67
2023/01/25 05:08:01;;;;;;;28.67;20.55;;;;;;;;;;5116606;28;20288;-67
2023/01/25 05:10:29;;;;;;;37.17;22.42;;;;;;;;;;5116441;28;20190;-67
2023/01/25 05:12:56;;;;;;;30.23;19.40;;;;;;;;;;5116551;28;20211;-67
2023/01/25 05:15:23;;;;;;;30.95;20.38;;;;;;;;;;5116297;28;20549;-68
2023/01/25 05:17:52;;;;;;;27.50;19.23;;;;;;;;;;5116151;28;20200;-67
2023/01/25 05:20:19;;;;;;;29.77;19.73;;;;;;;;;;5116241;28;20194;-67
2023/01/25 05:22:46;;;;;;;31.60;19.58;;;;;;;;;;5116154;28;20194;-67
2023/01/25 05:27:54;;;;;;;30.85;21.17;;;;;;;;;;5115245;28;20189;-67
2023/01/25 05:30:21;;;;;;;29.33;21.05;;;;;;;;;;5115900;28;20189;-67
2023/01/25 05:32:49;;;;;;;30.80;18.65;;;;;;;;;;5115872;28;20202;-66
2023/01/25 05:35:18;;;;;;;25.70;19.80;;;;;;;;;;5115889;28;20201;-66
2023/01/25 05:37:45;;;;;;;30.63;20.10;;;;;;;;;;5115725;28;20215;-67
2023/01/25 05:40:13;;;;;;;33.55;19.77;;;;;;;;;;5115366;28;20674;-67
2023/01/25 05:42:40;;;;;;;31.02;19.95;;;;;;;;;;5115692;28;20199;-66
2023/01/25 05:45:08;;;;;;;35.53;20.67;;;;;;;;;;5115308;28;20214;-67
2023/01/25 05:47:35;;;;;;;29.58;18.45;;;;;;;;;;5115472;28;20233;-67
2023/01/25 05:50:02;;;;;;;34.72;20.10;;;;;;;;;;5115509;28;20200;-67
2023/01/25 05:52:31;;;;;;;33.65;21.20;;;;;;;;;;5115088;28;20207;-66
2023/01/25 05:54:58;;;;;;;33.28;21.15;;;;;;;;;;5115657;28;20204;-66
2023/01/25 05:57:27;;;;;;;30.13;19.45;;;;;;;;;;5129876;27;20220;-67
2023/01/25 05:59:54;;;;;;;28.17;18.88;;;;;;;;;;5136331;27;20190;-66
2023/01/25 06:02:22;;;;;;;34.08;20.60;;;;;;;;;;5135277;27;20219;-66
2023/01/25 06:04:49;;;;;;;32.00;20.67;;;;;;;;;;5135845;27;20253;-67
2023/01/25 06:07:16;;;;;;;28.88;18.52;;;;;;;;;;5135861;27;20188;-67
2023/01/25 06:09:44;;;;;;;27.33;17.67;;;;;;;;;;5136115;27;20188;-65
2023/01/25 06:12:12;;;;;;;38.72;20.77;;;;;;;;;;5135436;27;20193;-65
2023/01/25 06:14:39;;;;;;;34.55;20.40;;;;;;;;;;5135708;27;20212;-65
2023/01/25 06:17:06;;;;;;;33.10;20.98;;;;;;;;;;5135307;27;20288;-65
2023/01/25 06:19:33;;;;;;;36.97;21.88;;;;;;;;;;5135761;27;20649;-65
2023/01/25 06:22:00;;;;;;;38.15;22.70;;;;;;;;;;5135682;27;20682;-65
2023/01/25 06:24:28;;;;;;;37.28;21.40;;;;;;;;;;5135553;27;20691;-65
2023/01/25 06:26:56;;;;;;;32.00;19.50;;;;;;;;;;5135538;27;20241;-65
2023/01/25 06:29:23;;;;;;;41.83;23.00;;;;;;;;;;5135528;27;20542;-65
2023/01/25 06:31:50;;;;;;;35.75;21.70;;;;;;;;;;5135423;27;20196;-65
2023/01/25 06:34:18;;;;;;;34.47;22.77;;;;;;;;;;5135358;27;20193;-65
2023/01/25 06:36:45;;;;;;;39.15;22.52;;;;;;;;;;5135043;27;20201;-65
2023/01/25 06:39:12;;;;;;;35.38;21.20;;;;;;;;;;5135243;27;20556;-65
2023/01/25 06:41:39;;;;;;;34.35;21.52;;;;;;;;;;5135245;27;20284;-65
2023/01/25 06:44:09;;;;;;;32.60;21.10;;;;;;;;;;5135317;27;20212;-65
2023/01/25 06:46:36;;;;;;;33.17;20.77;;;;;;;;;;5135003;27;20200;-65
2023/01/25 06:49:03;;;;;;;36.17;21.92;;;;;;;;;;5134732;27;20188;-65
2023/01/25 06:51:30;;;;;;;42.72;23.38;;;;;;;;;;5134996;27;20197;-65
2023/01/25 06:53:57;;;;;;;38.05;22.17;;;;;;;;;;5134886;27;20189;-65
2023/01/25 06:56:26;;;;;;;34.78;22.67;;;;;;;;;;5135158;27;20217;-65
2023/01/25 06:58:53;;;;;;;35.42;22.20;;;;;;;;;;5134848;27;20569;-65
2023/01/25 07:01:25;;;;;;;37.63;22.02;;;;;;;;;;5134943;27;20193;-65
2023/01/25 07:03:54;;;;;;;41.47;23.75;;;;;;;;;;5134816;27;20619;-65
2023/01/25 07:06:21;;;;;;;36.28;22.67;;;;;;;;;;5134809;27;20195;-65
2023/01/25 07:08:49;;;;;;;37.63;20.45;;;;;;;;;;5134304;27;20651;-65
2023/01/25 07:11:17;;;;;;;33.97;20.85;;;;;;;;;;5134456;27;20205;-65
2023/01/25 07:13:46;;;;;;;39.65;24.45;;;;;;;;;;5133937;27;20611;-65
2023/01/25 07:16:13;;;;;;;37.22;22.80;;;;;;;;;;5134385;27;20202;-65
2023/01/25 07:18:42;;;;;;;38.95;23.63;;;;;;;;;;5134585;27;20199;-65
2023/01/25 07:21:10;;;;;;;41.05;24.40;;;;;;;;;;5134656;27;20192;-65
2023/01/25 07:23:38;;;;;;;42.42;24.83;;;;;;;;;;5134444;27;20200;-65
2023/01/25 07:26:10;;;;;;;37.95;22.40;;;;;;;;;;5134189;27;20218;-65
2023/01/25 07:28:37;;;;;;;36.33;22.25;;;;;;;;;;5134748;27;20284;-65
2023/01/25 07:31:05;;;;;;;44.05;24.58;;;;;;;;;;5134134;27;20196;-65
2023/01/25 07:33:33;;;;;;;36.53;23.15;;;;;;;;;;5134696;27;20254;-65
2023/01/25 07:36:02;;;;;;;44.97;25.23;;;;;;;;;;5134142;28;20202;-65
2023/01/25 07:38:29;;;;;;;36.38;23.30;;;;;;;;;;5133987;28;20200;-65
2023/01/25 07:40:56;;;;;;;39.95;22.65;;;;;;;;;;5134352;28;20209;-65
2023/01/25 07:43:24;;;;;;;39.80;25.10;;;;;;;;;;5134543;28;20200;-65
2023/01/25 07:45:51;;;;;;;43.10;24.83;;;;;;;;;;5134804;28;20220;-65
2023/01/25 07:48:19;;;;;;;44.00;24.00;;;;;;;;;;5134116;28;20200;-65
2023/01/25 07:50:48;;;;;;;39.17;25.25;;;;;;;;;;5134265;28;20273;-65
2023/01/25 07:53:16;;;;;;;38.88;25.08;;;;;;;;;;5134190;28;20269;-65
2023/01/25 07:55:44;;;;;;;43.60;24.10;;;;;;;;;;5134177;28;20220;-65
2023/01/25 07:58:11;;;;;;;43.85;26.20;;;;;;;;;;5134922;28;20196;-65
2023/01/25 08:00:39;;;;;;;42.83;24.95;;;;;;;;;;5133926;28;20203;-65
2023/01/25 08:03:06;;;;;;;48.10;24.73;;;;;;;;;;5134112;28;20537;-65
2023/01/25 08:05:34;;;;;;;43.63;24.10;;;;;;;;;;5134734;28;20219;-65
2023/01/25 08:08:01;;;;;;;49.80;25.67;;;;;;;;;;5133618;28;20191;-65
2023/01/25 08:10:30;;;;;;;38.00;24.15;;;;;;;;;;5134065;28;20247;-65
2023/01/25 08:12:57;;;;;;;42.72;24.95;;;;;;;;;;5133976;28;20233;-65
2023/01/25 08:15:24;;;;;;;42.85;25.40;;;;;;;;;;5134047;28;20196;-65
2023/01/25 08:17:51;;;;;;;46.13;25.25;;;;;;;;;;5133964;28;20193;-65
2023/01/25 08:20:20;;;;;;;44.00;26.70;;;;;;;;;;5134508;28;20201;-65
2023/01/25 08:22:48;;;;;;;46.58;24.92;;;;;;;;;;5133580;28;20194;-65
2023/01/25 08:25:15;;;;;;;45.88;28.17;;;;;;;;;;5135168;27;20213;-65
2023/01/25 08:27:44;;;;;;;46.15;26.15;;;;;;;;;;5137964;27;20192;-65
2023/01/25 08:30:12;;;;;;;47.17;28.45;;;;;;;;;;5137493;27;20640;-65
2023/01/25 08:32:39;;;;;;;45.58;25.98;;;;;;;;;;5138039;27;20703;-65
2023/01/25 08:35:06;;;;;;;48.47;27.40;;;;;;;;;;5137708;27;20200;-65
2023/01/25 08:37:34;;;;;;;43.25;26.95;;;;;;;;;;5138164;27;20200;-65
2023/01/25 08:40:01;;;;;;;46.83;27.63;;;;;;;;;;5137215;27;20193;-65
2023/01/25 08:42:28;;;;;;;48.03;27.13;;;;;;;;;;5137548;27;20189;-65
2023/01/25 08:44:57;;;;;;;42.83;25.10;;;;;;;;;;5137371;27;20216;-65
2023/01/25 08:47:25;;;;;;;54.10;28.40;;;;;;;;;;5137689;27;20192;-65
2023/01/25 08:49:54;;;;;;;45.38;26.98;;;;;;;;;;5137038;27;20200;-65
2023/01/25 08:52:21;;;;;;;48.95;27.60;;;;;;;;;;5137716;27;20216;-65
2023/01/25 08:54:48;;;;;;;39.45;23.73;;;;;;;;;;5137378;27;20222;-65
2023/01/25 08:57:15;;;;;;;47.72;27.67;;;;;;;;;;5137343;27;20230;-65
2023/01/25 08:59:43;;;;;;;44.40;26.80;;;;;;;;;;5137190;27;20283;-65
2023/01/25 09:02:12;;;;;;;44.80;27.00;;;;;;;;;;5137004;27;20197;-65
2023/01/25 09:04:39;;;;;;;52.88;27.85;;;;;;;;;;5137403;27;20220;-65
2023/01/25 09:07:07;;;;;;;42.72;24.92;;;;;;;;;;5136644;27;20192;-65
2023/01/25 09:09:34;;;;;;;52.03;28.25;;;;;;;;;;5136872;27;20192;-65
2023/01/25 09:12:01;;;;;;;49.80;28.30;;;;;;;;;;5137021;27;20630;-65
2023/01/25 09:14:28;;;;;;;49.47;28.80;;;;;;;;;;5136602;27;20221;-65
2023/01/25 09:16:55;;;;;;;45.03;25.88;;;;;;;;;;5136990;27;20202;-65
2023/01/25 09:19:24;;;;;;;46.25;27.48;;;;;;;;;;5136821;27;20188;-65
2023/01/25 09:21:51;;;;;;;44.20;25.63;;;;;;;;;;5136945;27;20279;-64
2023/01/25 09:24:18;;;;;;;44.97;26.67;;;;;;;;;;5136803;27;20199;-65
2023/01/25 09:26:45;;;;;;;46.65;28.70;;;;;;;;;;5136528;27;20248;-65
2023/01/25 09:29:13;;;;;;;47.70;27.67;;;;;;;;;;5136825;27;20203;-66
2023/01/25 09:31:42;;;;;;;52.40;30.02;;;;;;;;;;5136483;27;20192;-65
2023/01/25 09:34:10;;;;;;;42.83;26.23;;;;;;;;;;5136556;27;20529;-65
2023/01/25 09:36:38;;;;;;;43.03;25.45;;;;;;;;;;5136119;27;20739;-65
2023/01/25 09:39:06;;;;;;;46.95;29.20;;;;;;;;;;5136404;27;20206;-65
2023/01/25 09:41:40;;;;;;;51.83;29.08;;;;;;;;;;5136750;27;20618;-65
2023/01/25 09:44:22;;;;;;;52.00;29.42;;;;;;;;;;5136386;27;20184;-65
2023/01/25 09:46:51;;;;;;;49.28;27.13;;;;;;;;;;5133064;27;20225;-65
2023/01/25 09:49:27;;;;;;;51.03;27.90;;;;;;;;;;5136329;27;20192;-65
2023/01/25 09:52:03;;;;;;;45.05;27.73;;;;;;;;;;5136045;27;20187;-65
2023/01/25 09:54:31;;;;;;;54.65;27.50;;;;;;;;;;5136606;27;20190;-65
2023/01/25 09:56:59;;;;;;;45.47;29.02;;;;;;;;;;5136113;27;20226;-65
2023/01/25 09:59:29;;;;;;;51.75;30.40;;;;;;;;;;5136067;27;20188;-65
2023/01/25 10:01:58;;;;;;;51.15;29.80;;;;;;;;;;5136115;27;20219;-65
2023/01/25 10:04:26;;;;;;;58.00;30.63;;;;;;;;;;5135620;27;20232;-65
2023/01/25 10:06:54;;;;;;;51.50;31.15;;;;;;;;;;5135913;27;20212;-65
2023/01/25 10:09:29;;;;;;;48.60;27.75;;;;;;;;;;5135885;27;20206;-65
2023/01/25 10:11:56;;;;;;;48.10;28.35;;;;;;;;;;5136141;27;20568;-65
2023/01/25 10:14:24;;;;;;;51.15;28.45;;;;;;;;;;5135758;27;20215;-65
2023/01/25 10:16:56;;;;;;;47.65;28.17;;;;;;;;;;5136002;27;20599;-65
2023/01/25 10:19:26;;;;;;;52.80;30.33;;;;;;;;;;5135813;27;20189;-65
2023/01/25 10:21:56;;;;;;;55.22;31.38;;;;;;;;;;5135787;27;20537;-65
2023/01/25 10:24:32;;;;;;;57.15;31.45;;;;;;;;;;5135470;27;20192;-65
2023/01/25 10:27:03;;;;;;;49.88;29.92;;;;;;;;;;5135412;27;20307;-65
2023/01/25 10:29:32;;;;;;;56.45;30.35;;;;;;;;;;5135476;27;20181;-65
2023/01/25 10:32:03;;;;;;;53.72;29.85;;;;;;;;;;5135606;27;20280;-65
2023/01/25 10:34:32;;;;;;;55.15;31.05;;;;;;;;;;5135297;27;20188;-66
2023/01/25 10:37:02;;;;;;;58.83;31.83;;;;;;;;;;5135022;27;20204;-66
2023/01/25 10:39:33;;;;;;;58.38;32.42;;;;;;;;;;5134969;27;20222;-67
2023/01/25 10:42:01;;;;;;;59.20;32.70;;;;;;;;;;5135876;27;20180;-64
2023/01/25 10:44:29;;;;;;;61.50;31.63;;;;;;;;;;5135104;27;20203;-64
2023/01/25 10:46:59;;;;;;;56.30;32.58;;;;;;;;;;5134960;27;20218;-64
2023/01/25 10:49:28;;;;;;;71.78;34.88;;;;;;;;;;5135017;27;20185;-64
2023/01/25 10:51:56;;;;;;;58.50;32.67;;;;;;;;;;5134660;27;20214;-63
2023/01/25 10:54:24;;;;;;;61.60;33.85;;;;;;;;;;5134979;27;20193;-64
2023/01/25 10:56:53;;;;;;;62.40;30.27;;;;;;;;;;5134763;27;20224;-64
2023/01/25 10:59:22;;;;;;;55.72;31.25;;;;;;;;;;5134664;27;20198;-64
2023/01/25 11:01:49;;;;;;;61.30;31.20;;;;;;;;;;5134908;27;20200;-65
2023/01/25 11:04:30;;;;;;;63.80;31.75;;;;;;;;;;5134634;27;20195;-65
2023/01/25 11:06:58;;;;;;;51.58;28.92;;;;;;;;;;5134830;27;20203;-64
2023/01/25 11:09:37;;;;;;;66.50;35.63;;;;;;;;;;5135136;27;20553;-65
2023/01/25 11:12:07;;;;;;;49.97;27.25;;;;;;;;;;5134555;27;20188;-65
2023/01/25 11:14:34;;;;;;;55.55;28.52;;;;;;;;;;5134676;27;20180;-65
2023/01/25 11:17:03;;;;;;;53.75;29.00;;;;;;;;;;5134623;27;20530;-65
2023/01/25 11:19:32;;;;;;;51.45;29.20;;;;;;;;;;5135075;27;20235;-65
2023/01/25 11:22:00;;;;;;;55.05;27.38;;;;;;;;;;5134422;27;20188;-64
2023/01/25 11:24:28;;;;;;;50.13;26.70;;;;;;;;;;5134247;27;20199;-64
2023/01/25 11:27:10;;;;;;;45.67;25.40;;;;;;;;;;5133968;27;20221;-65
2023/01/25 11:29:39;;;;;;;44.30;25.83;;;;;;;;;;5134723;27;20180;-65
2023/01/25 11:32:15;;;;;;;47.53;26.45;;;;;;;;;;5134387;27;20192;-65
2023/01/25 11:34:42;;;;;;;48.75;27.20;;;;;;;;;;5134739;27;20221;-64
2023/01/25 11:37:19;;;;;;;53.35;30.75;;;;;;;;;;5134407;28;20283;-64
2023/01/25 11:39:52;;;;;;;53.42;29.42;;;;;;;;;;5134987;28;20192;-64
2023/01/25 11:42:27;;;;;;;59.70;32.25;;;;;;;;;;5134249;28;20542;-64
2023/01/25 11:45:18;;;;;;;66.72;32.17;;;;;;;;;;5134513;28;20275;-64
2023/01/25 11:47:53;;;;;;;59.70;29.92;;;;;;;;;;5108947;28;20220;-64
2023/01/25 11:50:24;;;;;;;63.35;30.40;;;;;;;;;;5134383;28;20189;-64
2023/01/25 11:52:59;;;;;;;54.30;30.25;;;;;;;;;;5134324;28;20234;-64
2023/01/25 11:55:27;;;;;;;61.80;29.77;;;;;;;;;;5134599;28;20191;-64
2023/01/25 11:58:04;;;;;;;60.60;30.55;;;;;;;;;;5133883;28;20228;-65
2023/01/25 12:00:36;;;;;;;71.68;33.35;;;;;;;;;;5136463;27;20650;-64
2023/01/25 12:03:12;;;;;;;78.50;36.72;;;;;;;;;;5138196;27;20181;-64
2023/01/25 12:05:44;;;;;;;65.97;31.83;;;;;;;;;;5138986;27;20545;-65
2023/01/25 12:08:22;;;;;;;61.17;33.95;;;;;;;;;;5138373;27;20638;-64
2023/01/25 12:10:53;;;;;;;64.40;32.97;;;;;;;;;;5138691;27;20206;-64
2023/01/25 12:13:25;;;;;;;72.18;36.30;;;;;;;;;;5138451;27;20181;-64
2023/01/25 12:15:58;;;;;;;69.90;33.20;;;;;;;;;;5138028;27;20638;-65
2023/01/25 12:18:34;;;;;;;69.22;36.60;;;;;;;;;;5138331;27;20182;-64
2023/01/25 12:21:05;;;;;;;84.68;35.25;;;;;;;;;;5137567;27;20184;-64
2023/01/25 12:23:35;;;;;;;82.20;38.45;;;;;;;;;;5138295;27;20181;-65
2023/01/25 12:26:13;;;;;;;73.15;34.92;;;;;;;;;;5137780;27;20682;-64
2023/01/25 12:28:43;;;;;;;75.75;33.33;;;;;;;;;;5138721;27;20315;-64
2023/01/25 12:31:13;;;;;;;74.75;34.88;;;;;;;;;;5138133;27;20227;-64
2023/01/25 12:33:43;;;;;;;68.38;35.17;;;;;;;;;;5138136;27;20197;-64
2023/01/25 12:36:13;;;;;;;61.25;32.47;;;;;;;;;;5137764;27;20276;-64
2023/01/25 12:38:43;;;;;;;82.70;35.33;;;;;;;;;;5137751;27;20201;-64
2023/01/25 12:41:26;;;;;;;76.53;36.25;;;;;;;;;;5137098;27;20199;-67
2023/01/25 12:43:55;;;;;;;74.72;36.10;;;;;;;;;;5137484;27;20185;-65
2023/01/25 12:46:26;;;;;;;73.10;36.25;;;;;;;;;;5136896;27;20216;-65
2023/01/25 12:48:56;;;;;;;78.70;36.55;;;;;;;;;;5137553;27;20719;-65
2023/01/25 12:51:25;;;;;;;73.85;36.25;;;;;;;;;;5137343;27;20197;-65
2023/01/25 12:53:53;;;;;;;79.25;36.20;;;;;;;;;;5137916;27;20199;-65
2023/01/25 12:56:28;;;;;;;65.40;33.97;;;;;;;;;;5137201;27;20230;-65
2023/01/25 12:59:01;;;;;;;69.22;34.45;;;;;;;;;;5136991;27;20195;-64
2023/01/25 13:01:33;;;;;;;62.00;33.38;;;;;;;;;;5137319;27;20187;-65
2023/01/25 13:04:09;;;;;;;68.05;35.10;;;;;;;;;;5136931;27;20214;-65
2023/01/25 13:06:40;;;;;;;81.00;39.03;;;;;;;;;;5136589;27;20210;-65
2023/01/25 13:09:10;;;;;;;65.72;35.88;;;;;;;;;;5136796;27;20176;-65
2023/01/25 13:11:39;;;;;;;72.13;34.78;;;;;;;;;;5135437;27;20187;-65
2023/01/25 13:14:27;;;;;;;70.68;36.42;;;;;;;;;;5137063;27;20207;-66
2023/01/25 13:16:55;;;;;;;71.75;36.55;;;;;;;;;;5129491;27;20203;-65
2023/01/25 13:19:40;;;;;;;71.50;34.55;;;;;;;;;;5136857;27;20606;-65
2023/01/25 13:22:09;;;;;;;70.00;38.17;;;;;;;;;;5136738;27;20212;-65
2023/01/25 13:24:57;;;;;;;67.85;35.55;;;;;;;;;;5136752;27;20207;-65
2023/01/25 13:27:25;;;;;;;77.72;35.88;;;;;;;;;;5136186;27;20224;-65
2023/01/25 13:30:00;;;;;;;71.75;36.83;;;;;;;;;;5136688;27;20228;-65
2023/01/25 13:32:46;;;;;;;75.30;36.97;;;;;;;;;;5137112;27;20191;-65
2023/01/25 13:35:27;;;;;;;62.38;31.95;;;;;;;;;;5136247;27;20203;-65
2023/01/25 13:37:58;;;;;;;57.13;33.08;;;;;;;;;;5136165;27;20184;-65
2023/01/25 13:40:31;;;;;;;68.15;34.15;;;;;;;;;;5136934;27;20194;-65
2023/01/25 13:43:02;;;;;;;64.15;34.08;;;;;;;;;;5136379;27;20280;-65
2023/01/25 13:45:30;;;;;;;65.30;35.97;;;;;;;;;;5136628;27;20185;-64
2023/01/25 13:48:02;;;;;;;60.83;32.17;;;;;;;;;;5136364;27;20221;-65
2023/01/25 13:50:32;;;;;;;56.60;31.88;;;;;;;;;;5136444;27;20218;-64
2023/01/25 13:53:01;;;;;;;52.83;31.15;;;;;;;;;;5136512;27;20232;-64
2023/01/25 13:55:29;;;;;;;50.88;28.73;;;;;;;;;;5135908;27;20652;-65
2023/01/25 13:58:09;;;;;;;55.42;31.42;;;;;;;;;;5135975;27;20601;-65
2023/01/25 14:00:36;;;;;;;64.50;32.72;;;;;;;;;;5136137;27;20287;-65
2023/01/25 14:03:06;;;;;;;54.50;30.30;;;;;;;;;;5136109;27;20196;-65
2023/01/25 14:05:34;;;;;;;61.85;35.40;;;;;;;;;;5136176;27;20196;-65
2023/01/25 14:08:02;;;;;;;62.97;34.25;;;;;;;;;;5135637;27;20224;-65
2023/01/25 14:10:29;;;;;;;63.75;33.90;;;;;;;;;;5136001;27;20195;-65
2023/01/25 14:12:59;;;;;;;62.55;33.85;;;;;;;;;;5135853;27;20281;-65
2023/01/25 14:15:28;;;;;;;53.90;28.85;;;;;;;;;;5135715;27;20275;-65
2023/01/25 14:18:05;;;;;;;61.40;33.97;;;;;;;;;;5135169;27;20668;-66
2023/01/25 14:20:32;;;;;;;67.78;34.53;;;;;;;;;;5135336;27;20188;-65
2023/01/25 14:23:00;;;;;;;69.18;35.10;;;;;;;;;;5133595;27;20292;-65
2023/01/25 14:25:28;;;;;;;66.78;34.92;;;;;;;;;;5135374;27;20195;-65
2023/01/25 14:27:56;;;;;;;63.80;34.63;;;;;;;;;;5135214;27;20645;-66
2023/01/25 14:30:24;;;;;;;72.25;38.95;;;;;;;;;;5135512;27;20203;-65